sensor_id;sensor_type;location;lat;lon;timestamp;temperature;humidity
63875;DHT22;51595;24.180;-110.296;2023-08-08T00:02:16;39.90;99.90
63875;DHT22;51595;24.180;-110.296;2023-08-08T00:04:43;39.10;99.90
63875;DHT22;51595;24.180;-110.296;2023-08-08T00:07:10;39.10;99.90
63875;DHT22;51595;24.180;-110.296;2023-08-08T00:09:36;38.80;99.90
63875;DHT22;51595;24.180;-110.296;2023-08-08T00:12:03;38.70;99.90
63875;DHT22;51595;24.180;-110.296;2023-08-08T00:14:30;38.80;99.90
63875;DHT22;51595;24.180;-110.296;2023-08-08T00:16:57;38.90;99.90
63875;DHT22;51595;24.180;-110.296;2023-08-08T00:19:23;39.00;99.90
63875;DHT22;51595;24.180;-110.296;2023-08-08T00:21:50;38.90;99.90
63875;DHT22;51595;24.180;-110.296;2023-08-08T00:24:16;38.80;99.90
63875;DHT22;51595;24.180;-110.296;2023-08-08T00:26:43;38.60;99.90
63875;DHT22;51595;24.180;-110.296;2023-08-08T00:29:10;38.30;99.90
63875;DHT22;51595;24.180;-110.296;2023-08-08T00:31:36;37.70;99.90
63875;DHT22;51595;24.180;-110.296;2023-08-08T00:34:04;37.40;99.90
63875;DHT22;51595;24.180;-110.296;2023-08-08T00:36:31;37.00;99.90
63875;DHT22;51595;24.180;-110.296;2023-08-08T00:38:58;36.70;99.90
63875;DHT22;51595;24.180;-110.296;2023-08-08T00:41:25;36.30;99.90
63875;DHT22;51595;24.180;-110.296;2023-08-08T00:43:52;36.10;99.90
63875;DHT22;51595;24.180;-110.296;2023-08-08T00:46:21;36.00;99.90
63875;DHT22;51595;24.180;-110.296;2023-08-08T00:48:51;36.10;99.90
63875;DHT22;51595;24.180;-110.296;2023-08-08T00:51:18;36.30;99.90
63875;DHT22;51595;24.180;-110.296;2023-08-08T00:53:45;36.20;99.90
63875;DHT22;51595;24.180;-110.296;2023-08-08T00:56:13;36.10;99.90
63875;DHT22;51595;24.180;-110.296;2023-08-08T00:58:40;35.80;99.90
63875;DHT22;51595;24.180;-110.296;2023-08-08T01:01:11;35.70;99.90
63875;DHT22;51595;24.180;-110.296;2023-08-08T01:03:38;35.70;99.90
63875;DHT22;51595;24.180;-110.296;2023-08-08T01:06:26;35.70;99.90
63875;DHT22;51595;24.180;-110.296;2023-08-08T01:09:03;35.70;99.90
63875;DHT22;51595;24.180;-110.296;2023-08-08T01:11:32;35.90;99.90
63875;DHT22;51595;24.180;-110.296;2023-08-08T01:14:01;35.70;99.90
63875;DHT22;51595;24.180;-110.296;2023-08-08T01:16:29;35.60;99.90
63875;DHT22;51595;24.180;-110.296;2023-08-08T01:18:56;35.70;99.90
63875;DHT22;51595;24.180;-110.296;2023-08-08T01:21:24;35.70;99.90
63875;DHT22;51595;24.180;-110.296;2023-08-08T01:24:10;35.40;99.90
63875;DHT22;51595;24.180;-110.296;2023-08-08T01:26:36;35.10;99.90
63875;DHT22;51595;24.180;-110.296;2023-08-08T01:29:03;35.00;99.90
63875;DHT22;51595;24.180;-110.296;2023-08-08T01:31:29;34.90;99.90
63875;DHT22;51595;24.180;-110.296;2023-08-08T01:33:59;34.90;99.90
63875;DHT22;51595;24.180;-110.296;2023-08-08T01:36:30;34.90;99.90
63875;DHT22;51595;24.180;-110.296;2023-08-08T01:39:02;34.80;99.90
63875;DHT22;51595;24.180;-110.296;2023-08-08T01:41:34;34.70;99.90
63875;DHT22;51595;24.180;-110.296;2023-08-08T01:44:06;34.40;99.90
63875;DHT22;51595;24.180;-110.296;2023-08-08T01:46:33;34.10;99.90
63875;DHT22;51595;24.180;-110.296;2023-08-08T01:49:00;33.80;99.90
63875;DHT22;51595;24.180;-110.296;2023-08-08T01:51:27;33.90;99.90
63875;DHT22;51595;24.180;-110.296;2023-08-08T01:53:54;33.80;99.90
63875;DHT22;51595;24.180;-110.296;2023-08-08T01:56:20;33.60;99.90
63875;DHT22;51595;24.180;-110.296;2023-08-08T01:58:47;33.60;99.90
63875;DHT22;51595;24.180;-110.296;2023-08-08T02:01:13;33.40;99.90
63875;DHT22;51595;24.180;-110.296;2023-08-08T02:03:40;33.20;99.90
63875;DHT22;51595;24.180;-110.296;2023-08-08T02:06:07;33.20;99.90
63875;DHT22;51595;24.180;-110.296;2023-08-08T02:08:34;33.20;99.90
63875;DHT22;51595;24.180;-110.296;2023-08-08T02:11:00;33.10;99.90
63875;DHT22;51595;24.180;-110.296;2023-08-08T02:13:27;33.10;99.90
63875;DHT22;51595;24.180;-110.296;2023-08-08T02:15:53;33.00;99.90
63875;DHT22;51595;24.180;-110.296;2023-08-08T02:18:20;32.90;99.90
63875;DHT22;51595;24.180;-110.296;2023-08-08T02:20:49;32.90;99.90
63875;DHT22;51595;24.180;-110.296;2023-08-08T02:23:16;32.80;99.90
63875;DHT22;51595;24.180;-110.296;2023-08-08T02:25:42;32.70;99.90
63875;DHT22;51595;24.180;-110.296;2023-08-08T02:28:09;32.60;99.90
63875;DHT22;51595;24.180;-110.296;2023-08-08T02:30:35;32.60;99.90
63875;DHT22;51595;24.180;-110.296;2023-08-08T02:33:02;32.60;99.90
63875;DHT22;51595;24.180;-110.296;2023-08-08T02:35:29;32.60;99.90
63875;DHT22;51595;24.180;-110.296;2023-08-08T02:38:01;32.40;99.90
63875;DHT22;51595;24.180;-110.296;2023-08-08T02:40:31;32.40;99.90
63875;DHT22;51595;24.180;-110.296;2023-08-08T02:43:00;32.40;99.90
63875;DHT22;51595;24.180;-110.296;2023-08-08T02:45:26;32.40;99.90
63875;DHT22;51595;24.180;-110.296;2023-08-08T02:47:53;32.60;99.90
63875;DHT22;51595;24.180;-110.296;2023-08-08T02:50:20;32.60;99.90
63875;DHT22;51595;24.180;-110.296;2023-08-08T02:52:46;32.50;99.90
63875;DHT22;51595;24.180;-110.296;2023-08-08T02:55:12;32.50;99.90
63875;DHT22;51595;24.180;-110.296;2023-08-08T02:57:42;32.40;99.90
63875;DHT22;51595;24.180;-110.296;2023-08-08T03:00:09;32.30;99.90
63875;DHT22;51595;24.180;-110.296;2023-08-08T03:02:39;32.30;99.90
63875;DHT22;51595;24.180;-110.296;2023-08-08T03:05:06;32.20;99.90
63875;DHT22;51595;24.180;-110.296;2023-08-08T03:07:33;32.00;99.90
63875;DHT22;51595;24.180;-110.296;2023-08-08T03:09:59;32.00;99.90
63875;DHT22;51595;24.180;-110.296;2023-08-08T03:12:25;31.90;99.90
63875;DHT22;51595;24.180;-110.296;2023-08-08T03:14:55;31.80;99.90
63875;DHT22;51595;24.180;-110.296;2023-08-08T03:17:22;31.70;99.90
63875;DHT22;51595;24.180;-110.296;2023-08-08T03:19:49;31.70;99.90
63875;DHT22;51595;24.180;-110.296;2023-08-08T03:22:15;31.60;99.90
63875;DHT22;51595;24.180;-110.296;2023-08-08T03:24:41;31.50;99.90
63875;DHT22;51595;24.180;-110.296;2023-08-08T03:27:08;31.50;99.90
63875;DHT22;51595;24.180;-110.296;2023-08-08T03:29:35;31.60;99.90
63875;DHT22;51595;24.180;-110.296;2023-08-08T03:32:01;31.60;99.90
63875;DHT22;51595;24.180;-110.296;2023-08-08T03:34:30;31.50;99.90
63875;DHT22;51595;24.180;-110.296;2023-08-08T03:36:57;31.40;99.90
63875;DHT22;51595;24.180;-110.296;2023-08-08T03:39:23;31.50;99.90
63875;DHT22;51595;24.180;-110.296;2023-08-08T03:41:50;31.60;99.90
63875;DHT22;51595;24.180;-110.296;2023-08-08T03:44:16;31.60;99.90
63875;DHT22;51595;24.180;-110.296;2023-08-08T03:46:44;31.50;99.90
63875;DHT22;51595;24.180;-110.296;2023-08-08T03:49:10;31.50;99.90
63875;DHT22;51595;24.180;-110.296;2023-08-08T03:51:36;31.40;99.90
63875;DHT22;51595;24.180;-110.296;2023-08-08T03:54:03;31.50;99.90
63875;DHT22;51595;24.180;-110.296;2023-08-08T03:56:30;31.50;99.90
63875;DHT22;51595;24.180;-110.296;2023-08-08T03:58:57;31.50;99.90
63875;DHT22;51595;24.180;-110.296;2023-08-08T04:01:23;31.50;99.90
63875;DHT22;51595;24.180;-110.296;2023-08-08T04:03:50;31.40;99.90
63875;DHT22;51595;24.180;-110.296;2023-08-08T04:06:16;31.20;99.90
63875;DHT22;51595;24.180;-110.296;2023-08-08T04:08:43;31.10;99.90
63875;DHT22;51595;24.180;-110.296;2023-08-08T04:11:09;31.10;99.90
63875;DHT22;51595;24.180;-110.296;2023-08-08T04:13:37;31.20;99.90
63875;DHT22;51595;24.180;-110.296;2023-08-08T04:16:03;31.10;99.90
63875;DHT22;51595;24.180;-110.296;2023-08-08T04:18:29;31.00;99.90
63875;DHT22;51595;24.180;-110.296;2023-08-08T04:20:56;31.00;99.90
63875;DHT22;51595;24.180;-110.296;2023-08-08T04:23:22;31.10;99.90
63875;DHT22;51595;24.180;-110.296;2023-08-08T04:25:53;31.10;99.90
63875;DHT22;51595;24.180;-110.296;2023-08-08T04:28:19;31.10;99.90
63875;DHT22;51595;24.180;-110.296;2023-08-08T04:30:46;31.00;99.90
63875;DHT22;51595;24.180;-110.296;2023-08-08T04:33:13;30.90;99.90
63875;DHT22;51595;24.180;-110.296;2023-08-08T04:35:39;30.90;99.90
63875;DHT22;51595;24.180;-110.296;2023-08-08T04:38:06;30.90;99.90
63875;DHT22;51595;24.180;-110.296;2023-08-08T04:40:32;30.80;99.90
63875;DHT22;51595;24.180;-110.296;2023-08-08T04:42:58;30.90;99.90
63875;DHT22;51595;24.180;-110.296;2023-08-08T04:45:25;30.80;99.90
63875;DHT22;51595;24.180;-110.296;2023-08-08T04:47:53;30.90;99.90
63875;DHT22;51595;24.180;-110.296;2023-08-08T04:50:19;30.80;99.90
63875;DHT22;51595;24.180;-110.296;2023-08-08T04:52:46;30.80;99.90
63875;DHT22;51595;24.180;-110.296;2023-08-08T04:55:13;30.70;99.90
63875;DHT22;51595;24.180;-110.296;2023-08-08T04:57:40;30.60;99.90
63875;DHT22;51595;24.180;-110.296;2023-08-08T05:00:08;30.60;99.90
63875;DHT22;51595;24.180;-110.296;2023-08-08T05:02:35;30.60;99.90
63875;DHT22;51595;24.180;-110.296;2023-08-08T05:05:02;30.60;99.90
63875;DHT22;51595;24.180;-110.296;2023-08-08T05:07:29;30.70;99.90
63875;DHT22;51595;24.180;-110.296;2023-08-08T05:09:55;30.60;99.90
63875;DHT22;51595;24.180;-110.296;2023-08-08T05:12:22;30.60;99.90
63875;DHT22;51595;24.180;-110.296;2023-08-08T05:14:48;30.60;99.90
63875;DHT22;51595;24.180;-110.296;2023-08-08T05:17:15;30.50;99.90
63875;DHT22;51595;24.180;-110.296;2023-08-08T05:19:41;30.40;99.90
63875;DHT22;51595;24.180;-110.296;2023-08-08T05:22:08;30.30;99.90
63875;DHT22;51595;24.180;-110.296;2023-08-08T05:24:34;30.30;99.90
63875;DHT22;51595;24.180;-110.296;2023-08-08T05:27:05;30.40;99.90
63875;DHT22;51595;24.180;-110.296;2023-08-08T05:29:31;30.40;99.90
63875;DHT22;51595;24.180;-110.296;2023-08-08T05:31:58;30.30;99.90
63875;DHT22;51595;24.180;-110.296;2023-08-08T05:34:24;30.30;99.90
63875;DHT22;51595;24.180;-110.296;2023-08-08T05:36:51;30.40;99.90
63875;DHT22;51595;24.180;-110.296;2023-08-08T05:39:17;30.40;99.90
63875;DHT22;51595;24.180;-110.296;2023-08-08T05:41:43;30.30;99.90
63875;DHT22;51595;24.180;-110.296;2023-08-08T05:44:11;30.30;99.90
63875;DHT22;51595;24.180;-110.296;2023-08-08T05:46:38;30.30;99.90
63875;DHT22;51595;24.180;-110.296;2023-08-08T05:49:04;30.30;99.90
63875;DHT22;51595;24.180;-110.296;2023-08-08T05:51:32;30.30;99.90
63875;DHT22;51595;24.180;-110.296;2023-08-08T05:53:59;30.20;99.90
63875;DHT22;51595;24.180;-110.296;2023-08-08T05:56:27;30.20;99.90
63875;DHT22;51595;24.180;-110.296;2023-08-08T05:58:57;30.20;99.90
63875;DHT22;51595;24.180;-110.296;2023-08-08T06:01:23;30.10;99.90
63875;DHT22;51595;24.180;-110.296;2023-08-08T06:03:49;30.20;99.90
63875;DHT22;51595;24.180;-110.296;2023-08-08T06:06:16;30.20;99.90
63875;DHT22;51595;24.180;-110.296;2023-08-08T06:08:42;30.20;99.90
63875;DHT22;51595;24.180;-110.296;2023-08-08T06:11:09;30.10;99.90
63875;DHT22;51595;24.180;-110.296;2023-08-08T06:13:36;30.20;99.90
63875;DHT22;51595;24.180;-110.296;2023-08-08T06:16:02;30.10;99.90
63875;DHT22;51595;24.180;-110.296;2023-08-08T06:18:33;30.00;99.90
63875;DHT22;51595;24.180;-110.296;2023-08-08T06:20:59;29.90;99.90
63875;DHT22;51595;24.180;-110.296;2023-08-08T06:23:26;29.90;99.90
63875;DHT22;51595;24.180;-110.296;2023-08-08T06:25:52;29.90;99.90
63875;DHT22;51595;24.180;-110.296;2023-08-08T06:28:19;30.00;99.90
63875;DHT22;51595;24.180;-110.296;2023-08-08T06:30:47;30.00;99.90
63875;DHT22;51595;24.180;-110.296;2023-08-08T06:33:14;30.00;99.90
63875;DHT22;51595;24.180;-110.296;2023-08-08T06:35:41;30.00;99.90
63875;DHT22;51595;24.180;-110.296;2023-08-08T06:38:08;30.00;99.90
63875;DHT22;51595;24.180;-110.296;2023-08-08T06:40:34;30.00;99.90
63875;DHT22;51595;24.180;-110.296;2023-08-08T06:43:01;30.10;99.90
63875;DHT22;51595;24.180;-110.296;2023-08-08T06:45:27;30.00;99.90
63875;DHT22;51595;24.180;-110.296;2023-08-08T06:47:54;29.90;99.90
63875;DHT22;51595;24.180;-110.296;2023-08-08T06:50:22;29.90;99.90
63875;DHT22;51595;24.180;-110.296;2023-08-08T06:52:50;29.90;99.90
63875;DHT22;51595;24.180;-110.296;2023-08-08T06:55:17;30.00;99.90
63875;DHT22;51595;24.180;-110.296;2023-08-08T06:57:44;30.00;99.90
63875;DHT22;51595;24.180;-110.296;2023-08-08T07:00:11;30.00;99.90
63875;DHT22;51595;24.180;-110.296;2023-08-08T07:02:39;30.10;99.90
63875;DHT22;51595;24.180;-110.296;2023-08-08T07:05:09;30.10;99.90
63875;DHT22;51595;24.180;-110.296;2023-08-08T07:07:36;30.20;99.90
63875;DHT22;51595;24.180;-110.296;2023-08-08T07:10:03;30.20;99.90
63875;DHT22;51595;24.180;-110.296;2023-08-08T07:12:30;30.20;99.90
63875;DHT22;51595;24.180;-110.296;2023-08-08T07:14:56;30.10;99.90
63875;DHT22;51595;24.180;-110.296;2023-08-08T07:17:23;30.00;99.90
63875;DHT22;51595;24.180;-110.296;2023-08-08T07:19:49;29.90;99.90
63875;DHT22;51595;24.180;-110.296;2023-08-08T07:22:16;29.90;99.90
63875;DHT22;51595;24.180;-110.296;2023-08-08T07:24:43;29.90;99.90
63875;DHT22;51595;24.180;-110.296;2023-08-08T07:27:09;29.80;99.90
63875;DHT22;51595;24.180;-110.296;2023-08-08T07:29:36;29.80;99.90
63875;DHT22;51595;24.180;-110.296;2023-08-08T07:32:03;29.80;99.90
63875;DHT22;51595;24.180;-110.296;2023-08-08T07:34:31;29.70;99.90
63875;DHT22;51595;24.180;-110.296;2023-08-08T07:36:58;29.70;99.90
63875;DHT22;51595;24.180;-110.296;2023-08-08T07:39:25;29.70;99.90
63875;DHT22;51595;24.180;-110.296;2023-08-08T07:41:55;29.60;99.90
63875;DHT22;51595;24.180;-110.296;2023-08-08T07:44:21;29.70;99.90
63875;DHT22;51595;24.180;-110.296;2023-08-08T07:46:51;29.70;99.90
63875;DHT22;51595;24.180;-110.296;2023-08-08T07:49:18;29.60;99.90
63875;DHT22;51595;24.180;-110.296;2023-08-08T07:51:44;29.60;99.90
63875;DHT22;51595;24.180;-110.296;2023-08-08T07:54:13;29.60;99.90
63875;DHT22;51595;24.180;-110.296;2023-08-08T07:56:42;29.60;99.90
63875;DHT22;51595;24.180;-110.296;2023-08-08T07:59:09;29.60;99.90
63875;DHT22;51595;24.180;-110.296;2023-08-08T08:01:36;29.60;99.90
63875;DHT22;51595;24.180;-110.296;2023-08-08T08:04:02;29.70;99.90
63875;DHT22;51595;24.180;-110.296;2023-08-08T08:06:29;29.60;99.90
63875;DHT22;51595;24.180;-110.296;2023-08-08T08:08:55;29.60;99.90
63875;DHT22;51595;24.180;-110.296;2023-08-08T08:11:22;29.50;99.90
63875;DHT22;51595;24.180;-110.296;2023-08-08T08:13:48;29.50;99.90
63875;DHT22;51595;24.180;-110.296;2023-08-08T08:16:15;29.50;99.90
63875;DHT22;51595;24.180;-110.296;2023-08-08T08:18:41;29.50;99.90
63875;DHT22;51595;24.180;-110.296;2023-08-08T08:21:08;29.50;99.90
63875;DHT22;51595;24.180;-110.296;2023-08-08T08:23:34;29.40;99.90
63875;DHT22;51595;24.180;-110.296;2023-08-08T08:26:01;29.40;99.90
63875;DHT22;51595;24.180;-110.296;2023-08-08T08:28:27;29.30;99.90
63875;DHT22;51595;24.180;-110.296;2023-08-08T08:30:54;29.30;99.90
63875;DHT22;51595;24.180;-110.296;2023-08-08T08:33:20;29.30;99.90
63875;DHT22;51595;24.180;-110.296;2023-08-08T08:35:47;29.40;99.90
63875;DHT22;51595;24.180;-110.296;2023-08-08T08:38:13;29.40;99.90
63875;DHT22;51595;24.180;-110.296;2023-08-08T08:40:41;29.40;99.90
63875;DHT22;51595;24.180;-110.296;2023-08-08T08:43:11;29.30;99.90
63875;DHT22;51595;24.180;-110.296;2023-08-08T08:45:38;29.30;99.90
63875;DHT22;51595;24.180;-110.296;2023-08-08T08:48:09;29.30;99.90
63875;DHT22;51595;24.180;-110.296;2023-08-08T08:50:39;29.30;99.90
63875;DHT22;51595;24.180;-110.296;2023-08-08T08:53:06;29.40;99.90
63875;DHT22;51595;24.180;-110.296;2023-08-08T08:55:33;29.50;99.90
63875;DHT22;51595;24.180;-110.296;2023-08-08T08:57:59;29.50;99.90
63875;DHT22;51595;24.180;-110.296;2023-08-08T09:00:26;29.40;99.90
63875;DHT22;51595;24.180;-110.296;2023-08-08T09:02:52;29.30;99.90
63875;DHT22;51595;24.180;-110.296;2023-08-08T09:05:21;29.30;99.90
63875;DHT22;51595;24.180;-110.296;2023-08-08T09:07:48;29.30;99.90
63875;DHT22;51595;24.180;-110.296;2023-08-08T09:10:16;29.30;99.90
63875;DHT22;51595;24.180;-110.296;2023-08-08T09:12:43;29.20;99.90
63875;DHT22;51595;24.180;-110.296;2023-08-08T09:15:10;29.10;99.90
63875;DHT22;51595;24.180;-110.296;2023-08-08T09:17:41;29.10;99.90
63875;DHT22;51595;24.180;-110.296;2023-08-08T09:20:26;29.10;99.90
63875;DHT22;51595;24.180;-110.296;2023-08-08T09:22:56;29.00;99.90
63875;DHT22;51595;24.180;-110.296;2023-08-08T09:25:23;29.10;99.90
63875;DHT22;51595;24.180;-110.296;2023-08-08T09:27:54;29.10;99.90
63875;DHT22;51595;24.180;-110.296;2023-08-08T09:30:20;29.20;99.90
63875;DHT22;51595;24.180;-110.296;2023-08-08T09:32:47;29.10;99.90
63875;DHT22;51595;24.180;-110.296;2023-08-08T09:35:14;29.20;99.90
63875;DHT22;51595;24.180;-110.296;2023-08-08T09:37:41;29.20;99.90
63875;DHT22;51595;24.180;-110.296;2023-08-08T09:40:08;29.10;99.90
63875;DHT22;51595;24.180;-110.296;2023-08-08T09:42:37;29.10;99.90
63875;DHT22;51595;24.180;-110.296;2023-08-08T09:45:03;29.00;99.90
63875;DHT22;51595;24.180;-110.296;2023-08-08T09:47:30;29.00;99.90
63875;DHT22;51595;24.180;-110.296;2023-08-08T09:50:01;29.00;99.90
63875;DHT22;51595;24.180;-110.296;2023-08-08T09:52:30;29.00;99.90
63875;DHT22;51595;24.180;-110.296;2023-08-08T09:54:59;29.00;99.90
63875;DHT22;51595;24.180;-110.296;2023-08-08T09:57:26;29.00;99.90
63875;DHT22;51595;24.180;-110.296;2023-08-08T09:59:53;29.00;99.90
63875;DHT22;51595;24.180;-110.296;2023-08-08T10:02:19;28.90;99.90
63875;DHT22;51595;24.180;-110.296;2023-08-08T10:04:46;29.00;99.90
63875;DHT22;51595;24.180;-110.296;2023-08-08T10:07:13;29.00;99.90
63875;DHT22;51595;24.180;-110.296;2023-08-08T10:09:42;29.00;99.90
63875;DHT22;51595;24.180;-110.296;2023-08-08T10:12:10;29.00;99.90
63875;DHT22;51595;24.180;-110.296;2023-08-08T10:14:38;28.90;99.90
63875;DHT22;51595;24.180;-110.296;2023-08-08T10:17:07;29.00;99.90
63875;DHT22;51595;24.180;-110.296;2023-08-08T10:19:34;29.00;99.90
63875;DHT22;51595;24.180;-110.296;2023-08-08T10:22:08;28.90;99.90
63875;DHT22;51595;24.180;-110.296;2023-08-08T10:24:36;28.90;99.90
63875;DHT22;51595;24.180;-110.296;2023-08-08T10:27:04;28.90;99.90
63875;DHT22;51595;24.180;-110.296;2023-08-08T10:29:32;28.90;99.90
63875;DHT22;51595;24.180;-110.296;2023-08-08T10:32:02;28.90;99.90
63875;DHT22;51595;24.180;-110.296;2023-08-08T10:34:43;28.90;99.90
63875;DHT22;51595;24.180;-110.296;2023-08-08T10:37:17;28.90;99.90
63875;DHT22;51595;24.180;-110.296;2023-08-08T10:39:54;28.90;99.90
63875;DHT22;51595;24.180;-110.296;2023-08-08T10:42:22;29.00;99.90
63875;DHT22;51595;24.180;-110.296;2023-08-08T10:44:59;29.00;99.90
63875;DHT22;51595;24.180;-110.296;2023-08-08T10:47:31;29.00;99.90
63875;DHT22;51595;24.180;-110.296;2023-08-08T10:50:21;29.00;99.90
63875;DHT22;51595;24.180;-110.296;2023-08-08T10:52:55;29.00;99.90
63875;DHT22;51595;24.180;-110.296;2023-08-08T10:58:07;29.10;99.90
63875;DHT22;51595;24.180;-110.296;2023-08-08T11:00:38;29.10;99.90
63875;DHT22;51595;24.180;-110.296;2023-08-08T11:03:08;29.10;99.90
63875;DHT22;51595;24.180;-110.296;2023-08-08T11:05:36;29.10;99.90
63875;DHT22;51595;24.180;-110.296;2023-08-08T11:08:10;29.00;99.90
63875;DHT22;51595;24.180;-110.296;2023-08-08T11:10:40;29.00;99.90
63875;DHT22;51595;24.180;-110.296;2023-08-08T11:13:08;28.90;99.90
63875;DHT22;51595;24.180;-110.296;2023-08-08T11:15:36;29.00;99.90
63875;DHT22;51595;24.180;-110.296;2023-08-08T11:18:03;29.00;99.90
63875;DHT22;51595;24.180;-110.296;2023-08-08T11:20:32;29.00;99.90
63875;DHT22;51595;24.180;-110.296;2023-08-08T11:22:59;29.00;99.90
63875;DHT22;51595;24.180;-110.296;2023-08-08T11:25:28;29.10;99.90
63875;DHT22;51595;24.180;-110.296;2023-08-08T11:27:56;29.10;99.90
63875;DHT22;51595;24.180;-110.296;2023-08-08T11:30:30;29.10;99.90
63875;DHT22;51595;24.180;-110.296;2023-08-08T11:32:59;29.00;99.90
63875;DHT22;51595;24.180;-110.296;2023-08-08T11:35:26;29.10;99.90
63875;DHT22;51595;24.180;-110.296;2023-08-08T11:37:57;29.00;99.90
63875;DHT22;51595;24.180;-110.296;2023-08-08T11:40:29;29.00;99.90
63875;DHT22;51595;24.180;-110.296;2023-08-08T11:42:57;29.10;99.90
63875;DHT22;51595;24.180;-110.296;2023-08-08T11:45:24;29.10;99.90
63875;DHT22;51595;24.180;-110.296;2023-08-08T11:47:55;29.10;99.90
63875;DHT22;51595;24.180;-110.296;2023-08-08T11:50:24;29.10;99.90
63875;DHT22;51595;24.180;-110.296;2023-08-08T11:52:54;29.00;99.90
63875;DHT22;51595;24.180;-110.296;2023-08-08T11:55:28;29.00;99.90
63875;DHT22;51595;24.180;-110.296;2023-08-08T11:57:55;29.00;99.90
63875;DHT22;51595;24.180;-110.296;2023-08-08T12:00:29;29.00;99.90
63875;DHT22;51595;24.180;-110.296;2023-08-08T12:02:56;29.10;99.90
63875;DHT22;51595;24.180;-110.296;2023-08-08T12:05:23;29.10;99.90
63875;DHT22;51595;24.180;-110.296;2023-08-08T12:07:51;29.00;99.90
63875;DHT22;51595;24.180;-110.296;2023-08-08T12:10:22;29.00;99.90
63875;DHT22;51595;24.180;-110.296;2023-08-08T12:12:56;28.90;99.90
63875;DHT22;51595;24.180;-110.296;2023-08-08T12:15:35;28.90;99.90
63875;DHT22;51595;24.180;-110.296;2023-08-08T12:18:02;29.00;99.90
63875;DHT22;51595;24.180;-110.296;2023-08-08T12:20:30;28.90;99.90
63875;DHT22;51595;24.180;-110.296;2023-08-08T12:22:58;28.90;99.90
63875;DHT22;51595;24.180;-110.296;2023-08-08T12:25:24;28.90;99.90
63875;DHT22;51595;24.180;-110.296;2023-08-08T12:27:51;28.90;99.90
63875;DHT22;51595;24.180;-110.296;2023-08-08T12:30:18;28.90;99.90
63875;DHT22;51595;24.180;-110.296;2023-08-08T12:32:44;28.90;99.90
63875;DHT22;51595;24.180;-110.296;2023-08-08T12:35:23;28.90;99.90
63875;DHT22;51595;24.180;-110.296;2023-08-08T12:37:52;28.90;99.90
63875;DHT22;51595;24.180;-110.296;2023-08-08T12:40:19;28.90;99.90
63875;DHT22;51595;24.180;-110.296;2023-08-08T12:42:45;29.00;99.90
63875;DHT22;51595;24.180;-110.296;2023-08-08T12:45:14;28.90;99.90
63875;DHT22;51595;24.180;-110.296;2023-08-08T12:47:40;28.90;99.90
63875;DHT22;51595;24.180;-110.296;2023-08-08T12:50:07;29.00;99.90
63875;DHT22;51595;24.180;-110.296;2023-08-08T12:52:34;28.90;99.90
63875;DHT22;51595;24.180;-110.296;2023-08-08T12:55:02;28.90;99.90
63875;DHT22;51595;24.180;-110.296;2023-08-08T12:57:28;29.00;99.90
63875;DHT22;51595;24.180;-110.296;2023-08-08T12:59:55;29.00;99.90
63875;DHT22;51595;24.180;-110.296;2023-08-08T13:02:22;29.00;99.90
63875;DHT22;51595;24.180;-110.296;2023-08-08T13:04:48;29.10;99.90
63875;DHT22;51595;24.180;-110.296;2023-08-08T13:07:15;29.00;99.90
63875;DHT22;51595;24.180;-110.296;2023-08-08T13:09:42;29.10;99.90
63875;DHT22;51595;24.180;-110.296;2023-08-08T13:12:08;29.10;99.90
63875;DHT22;51595;24.180;-110.296;2023-08-08T13:14:35;29.20;99.90
63875;DHT22;51595;24.180;-110.296;2023-08-08T13:17:02;29.10;99.90
63875;DHT22;51595;24.180;-110.296;2023-08-08T13:19:28;29.20;99.90
63875;DHT22;51595;24.180;-110.296;2023-08-08T13:21:55;29.30;99.90
63875;DHT22;51595;24.180;-110.296;2023-08-08T13:24:22;29.20;99.90
63875;DHT22;51595;24.180;-110.296;2023-08-08T13:26:51;29.30;99.90
63875;DHT22;51595;24.180;-110.296;2023-08-08T13:29:18;29.40;99.90
63875;DHT22;51595;24.180;-110.296;2023-08-08T13:31:44;29.40;99.90
63875;DHT22;51595;24.180;-110.296;2023-08-08T13:34:11;29.50;99.90
63875;DHT22;51595;24.180;-110.296;2023-08-08T13:36:37;29.70;99.90
63875;DHT22;51595;24.180;-110.296;2023-08-08T13:39:04;29.80;99.90
63875;DHT22;51595;24.180;-110.296;2023-08-08T13:41:30;29.80;99.90
63875;DHT22;51595;24.180;-110.296;2023-08-08T13:43:57;30.00;99.90
63875;DHT22;51595;24.180;-110.296;2023-08-08T13:46:23;30.10;99.90
63875;DHT22;51595;24.180;-110.296;2023-08-08T13:48:50;30.10;99.90
63875;DHT22;51595;24.180;-110.296;2023-08-08T13:51:16;30.20;99.90
63875;DHT22;51595;24.180;-110.296;2023-08-08T13:53:43;30.20;99.90
63875;DHT22;51595;24.180;-110.296;2023-08-08T13:56:10;30.20;99.90
63875;DHT22;51595;24.180;-110.296;2023-08-08T13:58:37;30.30;99.90
63875;DHT22;51595;24.180;-110.296;2023-08-08T14:01:04;30.20;99.90
63875;DHT22;51595;24.180;-110.296;2023-08-08T14:03:30;30.20;99.90
63875;DHT22;51595;24.180;-110.296;2023-08-08T14:05:57;30.30;99.90
63875;DHT22;51595;24.180;-110.296;2023-08-08T14:08:23;30.40;99.90
63875;DHT22;51595;24.180;-110.296;2023-08-08T14:10:50;30.40;99.90
63875;DHT22;51595;24.180;-110.296;2023-08-08T14:13:17;30.30;99.90
63875;DHT22;51595;24.180;-110.296;2023-08-08T14:15:45;30.30;99.90
63875;DHT22;51595;24.180;-110.296;2023-08-08T14:18:12;30.30;99.90
63875;DHT22;51595;24.180;-110.296;2023-08-08T14:20:38;30.30;99.90
63875;DHT22;51595;24.180;-110.296;2023-08-08T14:23:05;30.30;99.90
63875;DHT22;51595;24.180;-110.296;2023-08-08T14:25:32;30.50;99.90
63875;DHT22;51595;24.180;-110.296;2023-08-08T14:27:58;30.70;99.90
63875;DHT22;51595;24.180;-110.296;2023-08-08T14:30:26;31.20;99.90
63875;DHT22;51595;24.180;-110.296;2023-08-08T14:32:53;31.40;99.90
63875;DHT22;51595;24.180;-110.296;2023-08-08T14:35:20;31.40;99.90
63875;DHT22;51595;24.180;-110.296;2023-08-08T14:37:47;31.70;99.90
63875;DHT22;51595;24.180;-110.296;2023-08-08T14:40:13;32.00;99.90
63875;DHT22;51595;24.180;-110.296;2023-08-08T14:42:40;32.20;99.90
63875;DHT22;51595;24.180;-110.296;2023-08-08T14:45:07;32.30;99.90
63875;DHT22;51595;24.180;-110.296;2023-08-08T14:47:33;32.30;99.90
63875;DHT22;51595;24.180;-110.296;2023-08-08T14:50:00;32.20;99.90
63875;DHT22;51595;24.180;-110.296;2023-08-08T14:52:27;32.30;99.90
63875;DHT22;51595;24.180;-110.296;2023-08-08T14:54:53;32.30;99.90